sensor_id;sensor_type;location;lat;lon;timestamp;pressure;altitude;pressure_sealevel;temperature;humidity
15193;BME280;7697;51.630;7.484;2022-11-18T00:00:04;98910.84;;;7.90;95.46
15193;BME280;7697;51.630;7.484;2022-11-18T00:05:06;98918.69;;;7.79;95.03
15193;BME280;7697;51.630;7.484;2022-11-18T00:10:09;98919.47;;;7.79;95.68
15193;BME280;7697;51.630;7.484;2022-11-18T00:15:11;98921.91;;;7.81;95.42
15193;BME280;7697;51.630;7.484;2022-11-18T00:20:13;98919.72;;;7.78;95.01
15193;BME280;7697;51.630;7.484;2022-11-18T00:25:17;98936.09;;;7.80;96.14
15193;BME280;7697;51.630;7.484;2022-11-18T00:30:18;98931.94;;;7.72;95.55
15193;BME280;7697;51.630;7.484;2022-11-18T00:35:20;98932.63;;;7.68;96.30
15193;BME280;7697;51.630;7.484;2022-11-18T00:40:23;98929.78;;;7.69;95.79
15193;BME280;7697;51.630;7.484;2022-11-18T00:45:25;98944.78;;;7.69;96.06
15193;BME280;7697;51.630;7.484;2022-11-18T00:50:26;98939.03;;;7.72;95.89
15193;BME280;7697;51.630;7.484;2022-11-18T00:55:29;98947.53;;;7.74;96.95
15193;BME280;7697;51.630;7.484;2022-11-18T01:00:31;98956.16;;;7.81;97.99
15193;BME280;7697;51.630;7.484;2022-11-18T01:05:33;98955.84;;;7.89;97.80
15193;BME280;7697;51.630;7.484;2022-11-18T01:10:37;98961.88;;;7.96;98.33
15193;BME280;7697;51.630;7.484;2022-11-18T01:15:41;98968.19;;;8.07;97.83
15193;BME280;7697;51.630;7.484;2022-11-18T01:20:44;98967.66;;;8.16;97.75
15193;BME280;7697;51.630;7.484;2022-11-18T01:25:48;98957.06;;;8.23;97.53
15193;BME280;7697;51.630;7.484;2022-11-18T01:30:50;98956.81;;;8.24;98.00
15193;BME280;7697;51.630;7.484;2022-11-18T01:35:52;98972.78;;;8.29;98.25
15193;BME280;7697;51.630;7.484;2022-11-18T01:40:55;98975.22;;;8.31;98.31
15193;BME280;7697;51.630;7.484;2022-11-18T01:45:57;98969.69;;;8.33;98.97
15193;BME280;7697;51.630;7.484;2022-11-18T01:51:01;98978.50;;;8.26;98.24
15193;BME280;7697;51.630;7.484;2022-11-18T01:56:10;98976.28;;;8.23;98.43
15193;BME280;7697;51.630;7.484;2022-11-18T02:01:12;98971.00;;;8.23;98.38
15193;BME280;7697;51.630;7.484;2022-11-18T02:06:15;98981.44;;;8.18;98.83
15193;BME280;7697;51.630;7.484;2022-11-18T02:11:18;98993.00;;;8.17;99.05
15193;BME280;7697;51.630;7.484;2022-11-18T02:16:46;99002.09;;;8.21;98.92
15193;BME280;7697;51.630;7.484;2022-11-18T02:21:58;99010.72;;;8.28;99.83
15193;BME280;7697;51.630;7.484;2022-11-18T02:27:23;99015.72;;;8.37;99.49
15193;BME280;7697;51.630;7.484;2022-11-18T02:32:35;99026.97;;;8.44;99.63
15193;BME280;7697;51.630;7.484;2022-11-18T02:37:43;99029.19;;;8.47;99.89
15193;BME280;7697;51.630;7.484;2022-11-18T02:42:53;99034.94;;;8.55;100.00
15193;BME280;7697;51.630;7.484;2022-11-18T02:48:01;99043.72;;;8.68;100.00
15193;BME280;7697;51.630;7.484;2022-11-18T02:53:05;99042.13;;;8.78;100.00
15193;BME280;7697;51.630;7.484;2022-11-18T02:58:09;99047.44;;;8.90;100.00
15193;BME280;7697;51.630;7.484;2022-11-18T03:03:28;99033.31;;;8.96;100.00
15193;BME280;7697;51.630;7.484;2022-11-18T03:08:35;99037.50;;;9.03;100.00
15193;BME280;7697;51.630;7.484;2022-11-18T03:13:45;99039.22;;;9.10;100.00
15193;BME280;7697;51.630;7.484;2022-11-18T03:18:53;99038.50;;;9.14;100.00
15193;BME280;7697;51.630;7.484;2022-11-18T03:24:06;99040.94;;;9.16;100.00
15193;BME280;7697;51.630;7.484;2022-11-18T03:29:14;99043.94;;;9.19;100.00
15193;BME280;7697;51.630;7.484;2022-11-18T03:34:22;99051.72;;;9.14;100.00
15193;BME280;7697;51.630;7.484;2022-11-18T03:39:27;99064.59;;;9.11;100.00
15193;BME280;7697;51.630;7.484;2022-11-18T03:44:35;99065.63;;;9.10;100.00
15193;BME280;7697;51.630;7.484;2022-11-18T03:49:42;99086.28;;;9.13;100.00
15193;BME280;7697;51.630;7.484;2022-11-18T03:54:46;99088.47;;;9.16;100.00
15193;BME280;7697;51.630;7.484;2022-11-18T03:59:52;99087.66;;;9.15;100.00
15193;BME280;7697;51.630;7.484;2022-11-18T04:04:59;99095.16;;;9.18;100.00
15193;BME280;7697;51.630;7.484;2022-11-18T04:10:05;99095.38;;;9.17;100.00
15193;BME280;7697;51.630;7.484;2022-11-18T04:15:10;99101.47;;;9.17;100.00
15193;BME280;7697;51.630;7.484;2022-11-18T04:20:16;99096.97;;;9.18;100.00
15193;BME280;7697;51.630;7.484;2022-11-18T04:25:18;99100.22;;;9.20;100.00
15193;BME280;7697;51.630;7.484;2022-11-18T04:30:20;99105.00;;;9.23;100.00
15193;BME280;7697;51.630;7.484;2022-11-18T04:35:23;99110.19;;;9.18;100.00
15193;BME280;7697;51.630;7.484;2022-11-18T04:40:25;99116.50;;;9.17;100.00
15193;BME280;7697;51.630;7.484;2022-11-18T04:45:27;99116.16;;;9.25;100.00
15193;BME280;7697;51.630;7.484;2022-11-18T04:50:30;99131.91;;;9.31;100.00
15193;BME280;7697;51.630;7.484;2022-11-18T04:55:34;99150.06;;;9.28;100.00
15193;BME280;7697;51.630;7.484;2022-11-18T05:00:36;99143.59;;;9.24;100.00
15193;BME280;7697;51.630;7.484;2022-11-18T05:05:39;99154.09;;;9.30;100.00
15193;BME280;7697;51.630;7.484;2022-11-18T05:10:41;99160.53;;;9.34;100.00
15193;BME280;7697;51.630;7.484;2022-11-18T05:15:42;99159.59;;;9.29;100.00
15193;BME280;7697;51.630;7.484;2022-11-18T05:20:45;99165.91;;;9.28;100.00
15193;BME280;7697;51.630;7.484;2022-11-18T05:25:47;99172.81;;;9.29;100.00
15193;BME280;7697;51.630;7.484;2022-11-18T05:30:49;99162.94;;;9.36;100.00
15193;BME280;7697;51.630;7.484;2022-11-18T05:35:52;99169.63;;;9.38;100.00
15193;BME280;7697;51.630;7.484;2022-11-18T05:40:54;99182.38;;;9.41;100.00
15193;BME280;7697;51.630;7.484;2022-11-18T05:45:56;99178.47;;;9.44;100.00
15193;BME280;7697;51.630;7.484;2022-11-18T05:50:59;99182.50;;;9.47;100.00
15193;BME280;7697;51.630;7.484;2022-11-18T05:56:03;99195.50;;;9.48;100.00
15193;BME280;7697;51.630;7.484;2022-11-18T06:01:09;99203.44;;;9.48;100.00
15193;BME280;7697;51.630;7.484;2022-11-18T06:06:14;99204.44;;;9.47;100.00
15193;BME280;7697;51.630;7.484;2022-11-18T06:11:18;99214.78;;;9.49;100.00
15193;BME280;7697;51.630;7.484;2022-11-18T06:16:23;99220.41;;;9.52;100.00
15193;BME280;7697;51.630;7.484;2022-11-18T06:21:28;99226.88;;;9.56;100.00
15193;BME280;7697;51.630;7.484;2022-11-18T06:26:30;99228.34;;;9.52;100.00
15193;BME280;7697;51.630;7.484;2022-11-18T06:31:32;99239.94;;;9.51;100.00
15193;BME280;7697;51.630;7.484;2022-11-18T06:36:35;99241.56;;;9.52;100.00
15193;BME280;7697;51.630;7.484;2022-11-18T06:41:37;99249.72;;;9.51;100.00
15193;BME280;7697;51.630;7.484;2022-11-18T06:46:38;99249.06;;;9.55;100.00
15193;BME280;7697;51.630;7.484;2022-11-18T06:52:00;99260.31;;;9.62;100.00
15193;BME280;7697;51.630;7.484;2022-11-18T06:57:02;99263.56;;;9.64;100.00
15193;BME280;7697;51.630;7.484;2022-11-18T07:02:04;99275.75;;;9.65;100.00
15193;BME280;7697;51.630;7.484;2022-11-18T07:07:07;99283.78;;;9.70;100.00
15193;BME280;7697;51.630;7.484;2022-11-18T07:12:09;99300.84;;;9.74;100.00
15193;BME280;7697;51.630;7.484;2022-11-18T07:17:10;99310.50;;;9.81;100.00
15193;BME280;7697;51.630;7.484;2022-11-18T07:22:13;99316.16;;;9.84;100.00
15193;BME280;7697;51.630;7.484;2022-11-18T07:27:15;99316.50;;;9.88;100.00
15193;BME280;7697;51.630;7.484;2022-11-18T07:32:17;99322.16;;;9.91;100.00
15193;BME280;7697;51.630;7.484;2022-11-18T07:37:20;99327.56;;;9.96;100.00
15193;BME280;7697;51.630;7.484;2022-11-18T07:42:21;99337.22;;;10.02;100.00
15193;BME280;7697;51.630;7.484;2022-11-18T07:47:23;99338.28;;;10.01;100.00
15193;BME280;7697;51.630;7.484;2022-11-18T07:52:26;99344.72;;;10.05;100.00
15193;BME280;7697;51.630;7.484;2022-11-18T07:57:28;99355.66;;;10.09;100.00
15193;BME280;7697;51.630;7.484;2022-11-18T08:02:29;99366.03;;;10.10;100.00
15193;BME280;7697;51.630;7.484;2022-11-18T08:07:32;99372.13;;;10.11;100.00
15193;BME280;7697;51.630;7.484;2022-11-18T08:12:34;99377.75;;;10.14;100.00
15193;BME280;7697;51.630;7.484;2022-11-18T08:17:36;99381.59;;;10.19;100.00
15193;BME280;7697;51.630;7.484;2022-11-18T08:22:39;99390.69;;;10.23;100.00
15193;BME280;7697;51.630;7.484;2022-11-18T08:27:40;99391.16;;;10.20;100.00
15193;BME280;7697;51.630;7.484;2022-11-18T08:32:42;99392.50;;;10.22;100.00
15193;BME280;7697;51.630;7.484;2022-11-18T08:37:45;99399.78;;;10.27;100.00
15193;BME280;7697;51.630;7.484;2022-11-18T08:42:47;99399.31;;;10.30;100.00
15193;BME280;7697;51.630;7.484;2022-11-18T08:47:49;99408.44;;;10.34;100.00
15193;BME280;7697;51.630;7.484;2022-11-18T08:52:52;99409.25;;;10.34;100.00
15193;BME280;7697;51.630;7.484;2022-11-18T08:57:53;99419.94;;;10.39;100.00
15193;BME280;7697;51.630;7.484;2022-11-18T09:02:55;99424.56;;;10.44;100.00
15193;BME280;7697;51.630;7.484;2022-11-18T09:07:58;99423.66;;;10.50;100.00
15193;BME280;7697;51.630;7.484;2022-11-18T09:13:00;99426.19;;;10.57;100.00
15193;BME280;7697;51.630;7.484;2022-11-18T09:18:01;99424.28;;;10.64;100.00
15193;BME280;7697;51.630;7.484;2022-11-18T09:23:04;99438.22;;;10.71;100.00
15193;BME280;7697;51.630;7.484;2022-11-18T09:28:07;99434.03;;;10.75;100.00
15193;BME280;7697;51.630;7.484;2022-11-18T09:33:08;99444.31;;;10.83;100.00
15193;BME280;7697;51.630;7.484;2022-11-18T09:38:11;99448.47;;;10.90;100.00
15193;BME280;7697;51.630;7.484;2022-11-18T09:43:18;99455.06;;;11.00;100.00
15193;BME280;7697;51.630;7.484;2022-11-18T09:48:21;99463.69;;;11.07;100.00
15193;BME280;7697;51.630;7.484;2022-11-18T09:53:46;99467.25;;;11.12;100.00
15193;BME280;7697;51.630;7.484;2022-11-18T09:58:48;99484.88;;;11.18;100.00
15193;BME280;7697;51.630;7.484;2022-11-18T10:03:50;99486.03;;;11.22;100.00
15193;BME280;7697;51.630;7.484;2022-11-18T10:09:02;99490.41;;;11.28;100.00
15193;BME280;7697;51.630;7.484;2022-11-18T10:14:21;99495.47;;;11.30;100.00
15193;BME280;7697;51.630;7.484;2022-11-18T10:19:29;99496.28;;;11.31;100.00
15193;BME280;7697;51.630;7.484;2022-11-18T10:24:38;99503.22;;;11.32;100.00
15193;BME280;7697;51.630;7.484;2022-11-18T10:29:42;99505.19;;;11.36;100.00
15193;BME280;7697;51.630;7.484;2022-11-18T10:34:47;99503.91;;;11.39;100.00
15193;BME280;7697;51.630;7.484;2022-11-18T10:39:52;99506.53;;;11.39;100.00
15193;BME280;7697;51.630;7.484;2022-11-18T10:44:54;99514.63;;;11.44;100.00
15193;BME280;7697;51.630;7.484;2022-11-18T10:49:57;99516.44;;;11.55;100.00
15193;BME280;7697;51.630;7.484;2022-11-18T10:55:17;99515.78;;;11.59;100.00
15193;BME280;7697;51.630;7.484;2022-11-18T11:00:36;99508.03;;;11.58;100.00
15193;BME280;7697;51.630;7.484;2022-11-18T11:05:38;99511.84;;;11.62;100.00
15193;BME280;7697;51.630;7.484;2022-11-18T11:10:53;99517.97;;;11.62;100.00
15193;BME280;7697;51.630;7.484;2022-11-18T11:16:00;99519.31;;;11.65;100.00
15193;BME280;7697;51.630;7.484;2022-11-18T11:21:06;99523.38;;;11.56;100.00
15193;BME280;7697;51.630;7.484;2022-11-18T11:26:17;99515.53;;;11.61;100.00
15193;BME280;7697;51.630;7.484;2022-11-18T11:31:28;99525.66;;;11.64;100.00
15193;BME280;7697;51.630;7.484;2022-11-18T11:36:35;99525.34;;;11.60;100.00
15193;BME280;7697;51.630;7.484;2022-11-18T11:41:48;99529.63;;;11.61;100.00
15193;BME280;7697;51.630;7.484;2022-11-18T11:47:03;99531.34;;;11.68;100.00
15193;BME280;7697;51.630;7.484;2022-11-18T11:52:33;99541.81;;;11.74;100.00
15193;BME280;7697;51.630;7.484;2022-11-18T11:57:53;99536.50;;;11.74;100.00
15193;BME280;7697;51.630;7.484;2022-11-18T12:03:06;99545.97;;;11.82;100.00
15193;BME280;7697;51.630;7.484;2022-11-18T12:08:15;99551.19;;;11.88;100.00
15193;BME280;7697;51.630;7.484;2022-11-18T12:13:28;99552.31;;;11.92;100.00
15193;BME280;7697;51.630;7.484;2022-11-18T12:18:39;99562.25;;;11.97;100.00
15193;BME280;7697;51.630;7.484;2022-11-18T12:29:23;99555.19;;;11.91;100.00
15193;BME280;7697;51.630;7.484;2022-11-18T12:34:37;99562.47;;;11.95;100.00
15193;BME280;7697;51.630;7.484;2022-11-18T12:39:55;99556.81;;;12.03;100.00
15193;BME280;7697;51.630;7.484;2022-11-18T12:50:46;99568.97;;;12.28;100.00
15193;BME280;7697;51.630;7.484;2022-11-18T12:55:48;99566.91;;;12.30;100.00
15193;BME280;7697;51.630;7.484;2022-11-18T13:01:03;99571.41;;;12.29;100.00
15193;BME280;7697;51.630;7.484;2022-11-18T13:06:11;99569.63;;;12.35;100.00
15193;BME280;7697;51.630;7.484;2022-11-18T13:11:16;99570.94;;;12.32;100.00
15193;BME280;7697;51.630;7.484;2022-11-18T13:16:38;99573.38;;;12.34;100.00
15193;BME280;7697;51.630;7.484;2022-11-18T13:21:58;99576.56;;;12.36;100.00
15193;BME280;7697;51.630;7.484;2022-11-18T13:27:33;99580.03;;;12.36;100.00
15193;BME280;7697;51.630;7.484;2022-11-18T13:32:41;99580.84;;;12.37;100.00
15193;BME280;7697;51.630;7.484;2022-11-18T13:37:49;99591.22;;;12.38;100.00
15193;BME280;7697;51.630;7.484;2022-11-18T13:42:51;99580.59;;;12.38;100.00
15193;BME280;7697;51.630;7.484;2022-11-18T13:47:59;99595.28;;;12.41;100.00
15193;BME280;7697;51.630;7.484;2022-11-18T13:53:16;99594.13;;;12.37;100.00
15193;BME280;7697;51.630;7.484;2022-11-18T13:58:31;99595.16;;;12.36;100.00
15193;BME280;7697;51.630;7.484;2022-11-18T14:03:47;99598.06;;;12.34;100.00
15193;BME280;7697;51.630;7.484;2022-11-18T14:08:49;99599.09;;;12.33;100.00
15193;BME280;7697;51.630;7.484;2022-11-18T14:13:52;99590.78;;;12.30;100.00
15193;BME280;7697;51.630;7.484;2022-11-18T14:18:56;99606.13;;;12.28;100.00
15193;BME280;7697;51.630;7.484;2022-11-18T14:23:58;99608.22;;;12.26;100.00
15193;BME280;7697;51.630;7.484;2022-11-18T14:29:02;99612.41;;;12.22;100.00
15193;BME280;7697;51.630;7.484;2022-11-18T14:34:20;99622.91;;;12.17;100.00
15193;BME280;7697;51.630;7.484;2022-11-18T14:39:26;99624.31;;;12.08;100.00
15193;BME280;7697;51.630;7.484;2022-11-18T14:44:28;99629.50;;;12.02;100.00
15193;BME280;7697;51.630;7.484;2022-11-18T14:49:31;99628.59;;;11.97;100.00
15193;BME280;7697;51.630;7.484;2022-11-18T14:54:33;99628.13;;;11.88;100.00
15193;BME280;7697;51.630;7.484;2022-11-18T14:59:34;99632.25;;;11.84;100.00
15193;BME280;7697;51.630;7.484;2022-11-18T15:04:38;99642.28;;;11.82;100.00
15193;BME280;7697;51.630;7.484;2022-11-18T15:09:40;99641.69;;;11.69;100.00
15193;BME280;7697;51.630;7.484;2022-11-18T15:14:42;99642.69;;;11.44;100.00
15193;BME280;7697;51.630;7.484;2022-11-18T15:19:45;99652.25;;;11.34;100.00
15193;BME280;7697;51.630;7.484;2022-11-18T15:24:48;99654.41;;;11.25;100.00
15193;BME280;7697;51.630;7.484;2022-11-18T15:29:50;99666.69;;;11.19;100.00
15193;BME280;7697;51.630;7.484;2022-11-18T15:34:53;99671.50;;;11.11;100.00
15193;BME280;7697;51.630;7.484;2022-11-18T15:39:55;99686.78;;;10.97;100.00
15193;BME280;7697;51.630;7.484;2022-11-18T15:44:57;99695.03;;;10.89;100.00
15193;BME280;7697;51.630;7.484;2022-11-18T15:50:00;99688.88;;;10.77;100.00
15193;BME280;7697;51.630;7.484;2022-11-18T15:55:02;99699.53;;;10.70;100.00
15193;BME280;7697;51.630;7.484;2022-11-18T16:00:05;99697.78;;;10.64;100.00
15193;BME280;7697;51.630;7.484;2022-11-18T16:05:10;99696.09;;;10.51;100.00
15193;BME280;7697;51.630;7.484;2022-11-18T16:10:11;99708.44;;;10.39;100.00
15193;BME280;7697;51.630;7.484;2022-11-18T16:15:33;99714.09;;;10.43;100.00
15193;BME280;7697;51.630;7.484;2022-11-18T16:20:45;99717.38;;;10.38;100.00
15193;BME280;7697;51.630;7.484;2022-11-18T16:25:47;99728.88;;;10.32;100.00
15193;BME280;7697;51.630;7.484;2022-11-18T16:30:49;99743.78;;;10.27;100.00
15193;BME280;7697;51.630;7.484;2022-11-18T16:36:10;99761.03;;;10.29;100.00
15193;BME280;7697;51.630;7.484;2022-11-18T16:41:12;99768.25;;;10.22;100.00
15193;BME280;7697;51.630;7.484;2022-11-18T16:46:28;99783.34;;;10.15;100.00
15193;BME280;7697;51.630;7.484;2022-11-18T16:51:33;99775.88;;;10.05;100.00
15193;BME280;7697;51.630;7.484;2022-11-18T16:56:35;99776.00;;;9.92;100.00
15193;BME280;7697;51.630;7.484;2022-11-18T17:01:39;99778.00;;;9.65;100.00
15193;BME280;7697;51.630;7.484;2022-11-18T17:06:42;99777.41;;;9.63;100.00
15193;BME280;7697;51.630;7.484;2022-11-18T17:11:45;99773.19;;;9.56;100.00
15193;BME280;7697;51.630;7.484;2022-11-18T17:16:47;99796.63;;;9.46;100.00
15193;BME280;7697;51.630;7.484;2022-11-18T17:21:51;99806.19;;;9.40;100.00
15193;BME280;7697;51.630;7.484;2022-11-18T17:26:52;99794.56;;;9.48;100.00
15193;BME280;7697;51.630;7.484;2022-11-18T17:31:54;99793.56;;;9.42;100.00
15193;BME280;7697;51.630;7.484;2022-11-18T17:36:57;99794.22;;;9.37;100.00
15193;BME280;7697;51.630;7.484;2022-11-18T17:41:59;99782.69;;;9.25;100.00
15193;BME280;7697;51.630;7.484;2022-11-18T17:47:17;99793.47;;;9.17;100.00
15193;BME280;7697;51.630;7.484;2022-11-18T17:52:20;99797.78;;;9.05;100.00
15193;BME280;7697;51.630;7.484;2022-11-18T17:57:22;99784.19;;;8.95;100.00
15193;BME280;7697;51.630;7.484;2022-11-18T18:02:23;99821.00;;;8.90;100.00
15193;BME280;7697;51.630;7.484;2022-11-18T18:07:28;99818.56;;;8.88;100.00
15193;BME280;7697;51.630;7.484;2022-11-18T18:12:30;99825.69;;;8.81;100.00
15193;BME280;7697;51.630;7.484;2022-11-18T18:17:49;99838.50;;;8.64;100.00
15193;BME280;7697;51.630;7.484;2022-11-18T18:22:53;99848.25;;;8.64;100.00
15193;BME280;7697;51.630;7.484;2022-11-18T18:27:55;99851.28;;;8.74;100.00
15193;BME280;7697;51.630;7.484;2022-11-18T18:32:56;99861.47;;;8.57;100.00
15193;BME280;7697;51.630;7.484;2022-11-18T18:38:00;99862.06;;;8.40;100.00
15193;BME280;7697;51.630;7.484;2022-11-18T18:43:01;99849.44;;;8.28;100.00
15193;BME280;7697;51.630;7.484;2022-11-18T18:48:03;99866.28;;;8.27;100.00
15193;BME280;7697;51.630;7.484;2022-11-18T18:53:06;99873.38;;;8.14;100.00
15193;BME280;7697;51.630;7.484;2022-11-18T18:58:08;99887.34;;;8.01;100.00
15193;BME280;7697;51.630;7.484;2022-11-18T19:03:10;99893.41;;;7.95;100.00
15193;BME280;7697;51.630;7.484;2022-11-18T19:08:13;99893.00;;;7.91;100.00
15193;BME280;7697;51.630;7.484;2022-11-18T19:13:14;99909.56;;;7.79;99.89
15193;BME280;7697;51.630;7.484;2022-11-18T19:18:16;99911.19;;;7.73;100.00
15193;BME280;7697;51.630;7.484;2022-11-18T19:23:19;99909.53;;;7.66;99.80
15193;BME280;7697;51.630;7.484;2022-11-18T19:28:21;99902.78;;;7.50;99.93
15193;BME280;7697;51.630;7.484;2022-11-18T19:33:23;99914.88;;;7.38;99.31
15193;BME280;7697;51.630;7.484;2022-11-18T19:38:26;99912.59;;;7.28;99.90
15193;BME280;7697;51.630;7.484;2022-11-18T19:43:28;99918.66;;;7.22;99.80
15193;BME280;7697;51.630;7.484;2022-11-18T19:48:30;99934.00;;;7.19;99.27
15193;BME280;7697;51.630;7.484;2022-11-18T19:53:35;99944.50;;;7.12;99.58
15193;BME280;7697;51.630;7.484;2022-11-18T19:58:40;99955.22;;;7.10;99.47
15193;BME280;7697;51.630;7.484;2022-11-18T20:03:42;99965.72;;;7.04;99.01
15193;BME280;7697;51.630;7.484;2022-11-18T20:08:46;99975.28;;;7.11;98.98
15193;BME280;7697;51.630;7.484;2022-11-18T20:13:48;99973.59;;;7.04;98.50
15193;BME280;7697;51.630;7.484;2022-11-18T20:18:51;99976.38;;;6.96;98.23
15193;BME280;7697;51.630;7.484;2022-11-18T20:23:58;99962.09;;;6.84;98.47
15193;BME280;7697;51.630;7.484;2022-11-18T20:29:00;99967.72;;;6.81;98.99
15193;BME280;7697;51.630;7.484;2022-11-18T20:34:03;99976.44;;;6.81;98.93
15193;BME280;7697;51.630;7.484;2022-11-18T20:39:10;99983.25;;;6.69;98.81
15193;BME280;7697;51.630;7.484;2022-11-18T20:44:12;99993.06;;;6.60;98.38
15193;BME280;7697;51.630;7.484;2022-11-18T20:49:14;100000.06;;;6.53;98.59
15193;BME280;7697;51.630;7.484;2022-11-18T20:54:17;99999.47;;;6.51;98.29
15193;BME280;7697;51.630;7.484;2022-11-18T20:59:19;100000.81;;;6.47;98.20
15193;BME280;7697;51.630;7.484;2022-11-18T21:04:21;100006.72;;;6.49;98.51
15193;BME280;7697;51.630;7.484;2022-11-18T21:09:24;100007.34;;;6.51;97.70
15193;BME280;7697;51.630;7.484;2022-11-18T21:14:25;100009.72;;;6.46;97.37
15193;BME280;7697;51.630;7.484;2022-11-18T21:19:28;100005.09;;;6.48;98.03
15193;BME280;7697;51.630;7.484;2022-11-18T21:24:33;100013.16;;;6.47;97.69
15193;BME280;7697;51.630;7.484;2022-11-18T21:29:35;100008.00;;;6.38;97.42
15193;BME280;7697;51.630;7.484;2022-11-18T21:34:37;100015.84;;;6.32;97.89
15193;BME280;7697;51.630;7.484;2022-11-18T21:39:40;100021.63;;;6.27;97.27
15193;BME280;7697;51.630;7.484;2022-11-18T21:44:42;100021.03;;;6.25;97.48
15193;BME280;7697;51.630;7.484;2022-11-18T21:49:43;100019.03;;;6.13;96.83
15193;BME280;7697;51.630;7.484;2022-11-18T21:54:46;100025.59;;;6.02;96.81
15193;BME280;7697;51.630;7.484;2022-11-18T21:59:48;100024.78;;;6.01;96.93
15193;BME280;7697;51.630;7.484;2022-11-18T22:04:50;100026.31;;;5.96;97.03
15193;BME280;7697;51.630;7.484;2022-11-18T22:09:58;100026.50;;;5.94;96.89
15193;BME280;7697;51.630;7.484;2022-11-18T22:14:59;100027.50;;;5.93;97.05
15193;BME280;7697;51.630;7.484;2022-11-18T22:20:01;100027.38;;;5.87;97.25
15193;BME280;7697;51.630;7.484;2022-11-18T22:25:05;100028.56;;;5.84;96.65
15193;BME280;7697;51.630;7.484;2022-11-18T22:30:07;100034.91;;;5.75;96.35
15193;BME280;7697;51.630;7.484;2022-11-18T22:35:09;100041.53;;;5.71;95.84
15193;BME280;7697;51.630;7.484;2022-11-18T22:40:12;100047.50;;;5.65;96.19
15193;BME280;7697;51.630;7.484;2022-11-18T22:45:15;100046.16;;;5.69;96.76
15193;BME280;7697;51.630;7.484;2022-11-18T22:50:16;100044.03;;;5.64;95.37
15193;BME280;7697;51.630;7.484;2022-11-18T22:55:19;100045.84;;;5.49;94.95
15193;BME280;7697;51.630;7.484;2022-11-18T23:00:21;100052.34;;;5.39;95.65
15193;BME280;7697;51.630;7.484;2022-11-18T23:05:23;100050.53;;;5.39;95.53
15193;BME280;7697;51.630;7.484;2022-11-18T23:10:26;100052.72;;;5.36;94.75
15193;BME280;7697;51.630;7.484;2022-11-18T23:15:28;100052.09;;;5.34;95.00
15193;BME280;7697;51.630;7.484;2022-11-18T23:20:30;100060.69;;;5.27;94.89
15193;BME280;7697;51.630;7.484;2022-11-18T23:25:33;100064.72;;;5.15;94.10
15193;BME280;7697;51.630;7.484;2022-11-18T23:30:34;100069.03;;;5.08;94.79
15193;BME280;7697;51.630;7.484;2022-11-18T23:35:36;100078.88;;;5.06;94.76
15193;BME280;7697;51.630;7.484;2022-11-18T23:40:39;100076.59;;;5.03;95.01
15193;BME280;7697;51.630;7.484;2022-11-18T23:45:41;100076.97;;;5.00;94.70
15193;BME280;7697;51.630;7.484;2022-11-18T23:50:51;100082.56;;;4.97;94.85
15193;BME280;7697;51.630;7.484;2022-11-18T23:55:55;100086.75;;;5.06;94.77
